createdAt,value
2023-05-18T00:02:22.657Z,6.76
2023-05-18T00:04:51.892Z,6.80
2023-05-18T00:07:25.741Z,6.85
2023-05-18T00:09:56.493Z,6.78
2023-05-18T00:12:30.175Z,6.91
2023-05-18T00:15:01.263Z,6.37
2023-05-18T00:17:33.497Z,6.70
2023-05-18T00:20:05.774Z,6.29
2023-05-18T00:22:34.158Z,6.04
2023-05-18T00:25:02.599Z,6.38
2023-05-18T00:27:32.165Z,6.29
2023-05-18T00:30:01.915Z,6.34
2023-05-18T00:32:31.619Z,6.37
2023-05-18T00:35:01.346Z,6.75
2023-05-18T00:37:31.837Z,6.48
2023-05-18T00:40:00.402Z,6.65
2023-05-18T00:42:29.587Z,6.53
2023-05-18T00:44:58.964Z,7.20
2023-05-18T00:47:28.313Z,6.71
2023-05-18T00:49:58.135Z,6.56
2023-05-18T00:52:30.155Z,7.09
2023-05-18T00:55:01.979Z,7.00
2023-05-18T00:57:31.015Z,6.50
2023-05-18T01:00:00.141Z,6.68
2023-05-18T01:02:31.016Z,7.13
2023-05-18T01:05:01.408Z,7.13
2023-05-18T01:07:33.897Z,6.93
2023-05-18T01:10:02.504Z,6.63
2023-05-18T01:12:37.757Z,6.73
2023-05-18T01:15:16.641Z,7.31
2023-05-18T01:18:01.683Z,6.85
2023-05-18T01:20:38.384Z,6.39
2023-05-18T01:23:45.850Z,6.29
2023-05-18T01:26:17.093Z,7.04
2023-05-18T01:28:47.791Z,7.18
2023-05-18T01:31:16.897Z,7.01
2023-05-18T01:33:50.380Z,6.94
2023-05-18T01:36:21.712Z,6.99
2023-05-18T01:38:51.336Z,7.12
2023-05-18T01:41:30.607Z,6.92
2023-05-18T01:44:04.214Z,7.00
2023-05-18T01:46:42.343Z,7.00
2023-05-18T01:49:28.844Z,6.71
2023-05-18T01:52:05.213Z,6.78
2023-05-18T01:54:42.051Z,6.86
2023-05-18T01:57:11.989Z,6.74
2023-05-18T01:59:44.787Z,7.10
2023-05-18T02:02:16.504Z,7.15
2023-05-18T02:04:47.438Z,7.13
2023-05-18T02:07:18.222Z,7.13
2023-05-18T02:09:47.657Z,7.01
2023-05-18T02:12:19.038Z,6.75
2023-05-18T02:14:50.478Z,6.97
2023-05-18T02:17:20.166Z,7.12
2023-05-18T02:19:50.043Z,7.19
2023-05-18T02:22:19.474Z,7.15
2023-05-18T02:24:48.639Z,7.28
2023-05-18T02:27:23.604Z,7.16
2023-05-18T02:29:52.878Z,7.15
2023-05-18T02:32:22.561Z,7.11
2023-05-18T02:34:56.915Z,7.11
2023-05-18T02:37:27.703Z,6.79
2023-05-18T02:39:58.476Z,7.11
2023-05-18T02:42:28.371Z,7.11
2023-05-18T02:45:02.510Z,7.44
2023-05-18T02:47:34.242Z,7.45
2023-05-18T02:50:04.690Z,7.21
2023-05-18T02:52:38.350Z,7.18
2023-05-18T02:55:08.621Z,7.21
2023-05-18T02:58:05.906Z,7.43
2023-05-18T03:00:56.166Z,7.28
2023-05-18T03:03:26.367Z,7.60
2023-05-18T03:05:56.178Z,7.35
2023-05-18T03:08:27.720Z,7.52
2023-05-18T03:10:56.769Z,7.83
2023-05-18T03:13:26.393Z,7.53
2023-05-18T03:15:59.074Z,7.84
2023-05-18T03:18:30.749Z,7.48
2023-05-18T03:21:03.236Z,8.18
2023-05-18T03:23:32.889Z,7.80
2023-05-18T03:26:04.450Z,7.47
2023-05-18T03:28:34.172Z,8.01
2023-05-18T03:31:03.865Z,7.69
2023-05-18T03:33:34.142Z,7.74
2023-05-18T03:36:06.227Z,7.62
2023-05-18T03:38:35.772Z,7.25
2023-05-18T03:41:10.030Z,7.33
2023-05-18T03:43:38.384Z,7.34
2023-05-18T03:46:08.652Z,7.28
2023-05-18T03:48:38.692Z,7.17
2023-05-18T03:51:07.826Z,7.49
2023-05-18T03:53:36.924Z,7.22
2023-05-18T03:56:08.215Z,7.39
2023-05-18T03:58:36.777Z,7.49
2023-05-18T04:01:07.742Z,7.40
2023-05-18T04:03:37.659Z,7.18
2023-05-18T04:06:07.683Z,7.76
2023-05-18T04:08:37.980Z,7.27
2023-05-18T04:11:07.412Z,7.62
2023-05-18T04:13:39.859Z,7.33
2023-05-18T04:16:12.419Z,7.55
2023-05-18T04:18:46.088Z,7.62
2023-05-18T04:21:16.835Z,7.16
2023-05-18T04:23:48.877Z,7.69
2023-05-18T04:26:20.533Z,7.71
2023-05-18T04:28:50.864Z,7.46
2023-05-18T04:31:20.864Z,7.58
2023-05-18T04:33:52.008Z,7.59
2023-05-18T04:36:21.464Z,7.42
2023-05-18T04:38:52.075Z,7.85
2023-05-18T04:41:23.772Z,7.61
2023-05-18T04:43:56.422Z,7.95
2023-05-18T04:46:26.473Z,7.90
2023-05-18T04:48:58.895Z,8.28
2023-05-18T04:51:28.004Z,7.73
2023-05-18T04:53:58.007Z,8.08
2023-05-18T04:56:27.942Z,7.66
2023-05-18T04:58:59.894Z,7.80
2023-05-18T05:01:31.254Z,8.27
2023-05-18T05:04:04.014Z,8.25
2023-05-18T05:06:35.597Z,7.92
2023-05-18T05:09:04.919Z,8.12
2023-05-18T05:11:34.219Z,8.08
2023-05-18T05:14:04.114Z,8.47
2023-05-18T05:16:35.964Z,8.34
2023-05-18T05:19:04.946Z,8.22
2023-05-18T05:21:35.536Z,8.38
2023-05-18T05:24:06.884Z,8.37
2023-05-18T05:26:37.281Z,8.76
2023-05-18T05:29:12.811Z,8.42
2023-05-18T05:31:43.933Z,8.37
2023-05-18T05:34:15.605Z,8.48
2023-05-18T05:36:46.612Z,8.26
2023-05-18T05:39:17.345Z,8.58
2023-05-18T05:41:47.925Z,8.22
2023-05-18T05:44:18.237Z,8.36
2023-05-18T05:46:48.409Z,8.27
2023-05-18T05:49:18.284Z,8.08
2023-05-18T05:51:48.790Z,8.03
2023-05-18T05:54:18.206Z,8.47
2023-05-18T05:56:47.890Z,8.47
2023-05-18T05:59:17.512Z,8.21
2023-05-18T06:01:50.746Z,8.33
2023-05-18T06:04:20.104Z,8.34
2023-05-18T06:06:50.231Z,8.42
2023-05-18T06:09:19.549Z,8.52
2023-05-18T06:11:48.645Z,8.36
2023-05-18T06:14:18.646Z,8.50
2023-05-18T06:16:49.265Z,8.45
2023-05-18T06:19:21.014Z,8.52
2023-05-18T06:21:50.820Z,8.40
2023-05-18T06:24:20.468Z,8.48
2023-05-18T06:27:17.643Z,8.19
2023-05-18T06:30:00.277Z,8.20
2023-05-18T06:32:53.057Z,8.12
2023-05-18T06:35:22.006Z,8.32
2023-05-18T06:37:50.291Z,8.41
2023-05-18T06:40:19.982Z,8.13
2023-05-18T06:42:51.489Z,8.14
2023-05-18T06:45:28.775Z,8.25
2023-05-18T06:48:13.101Z,7.86
2023-05-18T06:50:45.044Z,7.73
2023-05-18T06:53:16.196Z,8.21
2023-05-18T06:55:45.077Z,8.09
2023-05-18T06:58:15.113Z,7.88
2023-05-18T07:00:47.233Z,7.61
2023-05-18T07:03:18.623Z,7.89
2023-05-18T07:05:48.538Z,7.77
2023-05-18T07:08:18.808Z,7.68
2023-05-18T07:10:48.283Z,8.24
2023-05-18T07:13:19.698Z,8.13
2023-05-18T07:15:49.411Z,7.90
2023-05-18T07:18:19.555Z,8.40
2023-05-18T07:20:48.564Z,8.03
2023-05-18T07:23:18.177Z,8.15
2023-05-18T07:25:48.053Z,8.24
2023-05-18T07:28:20.287Z,8.23
2023-05-18T07:30:50.449Z,7.99
2023-05-18T07:33:19.727Z,7.88
2023-05-18T07:35:48.074Z,7.94
2023-05-18T07:38:18.037Z,8.01
2023-05-18T07:40:48.905Z,7.86
2023-05-18T07:43:18.964Z,8.24
2023-05-18T07:45:48.156Z,8.36
2023-05-18T07:48:18.437Z,7.95
2023-05-18T07:50:47.407Z,7.97
2023-05-18T07:53:17.355Z,7.97
2023-05-18T07:55:49.120Z,7.43
2023-05-18T07:58:19.038Z,8.00
2023-05-18T08:00:48.085Z,8.10
2023-05-18T08:03:18.384Z,8.31
2023-05-18T08:05:48.142Z,8.14
2023-05-18T08:08:17.372Z,8.15
2023-05-18T08:10:48.659Z,7.91
2023-05-18T08:13:18.478Z,7.96
2023-05-18T08:15:56.022Z,8.31
2023-05-18T08:18:32.546Z,7.73
2023-05-18T08:21:10.558Z,7.71
2023-05-18T08:23:40.337Z,8.13
2023-05-18T08:26:11.841Z,8.15
2023-05-18T08:28:46.654Z,7.42
2023-05-18T08:31:17.414Z,7.92
2023-05-18T08:33:47.262Z,8.14
2023-05-18T08:36:19.609Z,7.86
2023-05-18T08:38:48.353Z,8.21
2023-05-18T08:41:46.633Z,8.00
2023-05-18T08:44:23.990Z,8.14
2023-05-18T08:46:56.579Z,8.40
2023-05-18T08:49:28.071Z,7.83
2023-05-18T08:51:59.201Z,7.99
2023-05-18T08:54:32.110Z,8.19
2023-05-18T08:57:03.941Z,7.99
2023-05-18T08:59:38.375Z,8.36
2023-05-18T09:02:08.442Z,8.10
2023-05-18T09:04:39.815Z,8.10
2023-05-18T09:07:11.517Z,8.07
2023-05-18T09:09:42.712Z,7.92
2023-05-18T09:12:12.827Z,8.33
2023-05-18T09:14:44.988Z,8.60
2023-05-18T09:17:15.332Z,8.36
2023-05-18T09:19:47.248Z,8.53
2023-05-18T09:22:17.883Z,8.29
2023-05-18T09:24:48.172Z,8.32
2023-05-18T09:27:18.432Z,8.13
2023-05-18T09:29:55.408Z,8.51
2023-05-18T09:32:25.184Z,8.21
2023-05-18T09:34:56.330Z,8.44
2023-05-18T09:37:24.785Z,8.41
2023-05-18T09:40:05.944Z,8.26
2023-05-18T09:42:38.907Z,8.43
2023-05-18T09:45:20.884Z,8.38
2023-05-18T09:47:53.142Z,8.09
2023-05-18T09:50:24.098Z,8.32
2023-05-18T09:52:52.812Z,8.15
2023-05-18T09:55:26.975Z,8.27
2023-05-18T09:57:57.815Z,8.33
2023-05-18T10:00:28.338Z,8.34
2023-05-18T10:02:58.013Z,8.21
2023-05-18T10:05:35.517Z,8.47
2023-05-18T10:08:04.772Z,8.18
2023-05-18T10:10:38.831Z,8.15
2023-05-18T10:13:08.737Z,8.07
2023-05-18T10:15:38.757Z,8.39
2023-05-18T10:18:09.732Z,8.46
2023-05-18T10:20:38.387Z,8.56
2023-05-18T10:23:10.659Z,8.35
2023-05-18T10:25:40.351Z,8.30
2023-05-18T10:28:11.985Z,8.39
2023-05-18T10:30:45.034Z,8.32
2023-05-18T10:33:28.468Z,7.67
2023-05-18T10:35:59.887Z,8.13
2023-05-18T10:38:30.349Z,8.18
2023-05-18T10:41:06.675Z,8.15
2023-05-18T10:43:37.159Z,8.32
2023-05-18T10:46:09.001Z,8.16
2023-05-18T10:48:41.586Z,8.43
2023-05-18T10:51:10.840Z,8.59
2023-05-18T10:53:44.761Z,8.28
2023-05-18T10:56:18.420Z,8.40
2023-05-18T10:58:48.282Z,7.72
2023-05-18T11:01:18.379Z,7.87
2023-05-18T11:03:51.860Z,8.35
2023-05-18T11:06:25.199Z,8.09
2023-05-18T11:08:54.243Z,8.35
2023-05-18T11:11:31.083Z,8.28
2023-05-18T11:14:03.881Z,8.06
2023-05-18T11:16:38.622Z,8.04
2023-05-18T11:19:12.988Z,8.26
2023-05-18T11:21:43.890Z,8.23
2023-05-18T11:24:31.227Z,7.76
2023-05-18T11:27:07.866Z,8.05
2023-05-18T11:29:57.820Z,8.14
2023-05-18T11:32:38.543Z,8.17
2023-05-18T11:35:11.948Z,7.76
2023-05-18T11:37:40.614Z,7.84
2023-05-18T11:40:34.088Z,8.06
2023-05-18T11:43:02.752Z,8.14
2023-05-18T11:45:34.496Z,8.06
2023-05-18T11:48:04.711Z,8.17
2023-05-18T11:50:33.245Z,7.79
2023-05-18T11:53:02.358Z,8.01
2023-05-18T11:55:42.297Z,8.03
2023-05-18T11:58:11.649Z,7.61
2023-05-18T12:00:41.246Z,7.87
2023-05-18T12:03:11.895Z,7.78
2023-05-18T12:05:51.967Z,8.02
2023-05-18T12:08:22.508Z,7.88
2023-05-18T12:10:51.802Z,7.60
2023-05-18T12:13:22.337Z,8.00
2023-05-18T12:15:54.012Z,7.78
2023-05-18T12:18:22.644Z,7.74
2023-05-18T12:20:51.890Z,7.94
2023-05-18T12:23:20.306Z,7.36
2023-05-18T12:25:49.351Z,7.59
2023-05-18T12:28:18.719Z,7.91
2023-05-18T12:30:48.281Z,8.03
2023-05-18T12:33:18.728Z,7.77
2023-05-18T12:35:48.107Z,7.60
2023-05-18T12:38:18.924Z,7.53
2023-05-18T12:40:49.510Z,7.72
2023-05-18T12:43:18.735Z,7.38
2023-05-18T12:45:49.138Z,7.67
2023-05-18T12:48:18.568Z,7.22
2023-05-18T12:50:49.352Z,7.27
2023-05-18T12:53:19.578Z,7.38
2023-05-18T12:55:58.865Z,7.48
2023-05-18T12:58:28.062Z,7.44
2023-05-18T13:00:56.454Z,7.80
2023-05-18T13:03:24.929Z,7.69
2023-05-18T13:06:08.203Z,7.57
2023-05-18T13:08:38.740Z,7.40
2023-05-18T13:11:14.358Z,7.45
2023-05-18T13:14:07.865Z,7.18
2023-05-18T13:16:47.851Z,7.66
2023-05-18T13:19:20.874Z,7.43
2023-05-18T13:21:58.073Z,7.58
2023-05-18T13:24:26.598Z,7.50
2023-05-18T13:26:56.110Z,7.69
2023-05-18T13:29:24.955Z,6.65
2023-05-18T13:31:53.642Z,7.33
2023-05-18T13:34:24.705Z,7.44
2023-05-18T13:36:54.202Z,7.59
2023-05-18T13:39:25.280Z,7.75
2023-05-18T13:41:56.053Z,7.44
2023-05-18T13:44:24.905Z,7.56
2023-05-18T13:46:53.137Z,7.26
2023-05-18T13:49:22.752Z,7.45
2023-05-18T13:51:50.890Z,7.57
2023-05-18T13:54:20.391Z,7.07
2023-05-18T13:56:53.204Z,7.59
2023-05-18T13:59:30.772Z,7.36
2023-05-18T14:02:00.401Z,7.67
2023-05-18T14:04:29.226Z,7.81
2023-05-18T14:06:59.484Z,7.66
2023-05-18T14:09:29.128Z,7.63
2023-05-18T14:12:00.474Z,7.43
2023-05-18T14:14:28.621Z,7.25
2023-05-18T14:16:58.429Z,7.32
2023-05-18T14:19:26.740Z,7.42
2023-05-18T14:21:56.435Z,7.50
2023-05-18T14:24:24.856Z,7.63
2023-05-18T14:26:54.324Z,7.43
2023-05-18T14:29:22.613Z,7.11
2023-05-18T14:31:51.078Z,7.61
2023-05-18T14:34:20.346Z,7.74
2023-05-18T14:36:49.182Z,7.19
2023-05-18T14:39:21.313Z,7.21
2023-05-18T14:41:50.834Z,7.48
2023-05-18T14:44:20.892Z,7.59
2023-05-18T14:46:49.139Z,7.19
2023-05-18T14:52:27.619Z,7.13
2023-05-18T14:54:56.444Z,6.97
2023-05-18T14:57:26.623Z,6.83
2023-05-18T14:59:59.458Z,6.91
2023-05-18T15:02:28.306Z,7.15
2023-05-18T15:05:00.590Z,7.21
2023-05-18T15:07:28.791Z,6.93
2023-05-18T15:10:00.501Z,6.99
2023-05-18T15:12:29.491Z,7.05
2023-05-18T15:14:59.507Z,6.89
2023-05-18T15:17:28.167Z,7.31
2023-05-18T15:19:56.798Z,6.99
2023-05-18T15:22:25.034Z,6.92
2023-05-18T15:24:54.073Z,7.34
2023-05-18T15:27:22.658Z,7.10
2023-05-18T15:29:52.441Z,7.08
2023-05-18T15:32:22.417Z,7.16
2023-05-18T15:34:50.711Z,7.27
2023-05-18T15:37:20.134Z,7.02
2023-05-18T15:39:48.786Z,7.25
2023-05-18T15:42:19.092Z,7.10
2023-05-18T15:44:48.018Z,6.87
2023-05-18T15:47:18.716Z,7.11
2023-05-18T15:49:52.056Z,7.16
2023-05-18T15:52:21.186Z,7.15
2023-05-18T15:54:50.209Z,7.07
2023-05-18T15:57:18.807Z,6.84
2023-05-18T15:59:47.251Z,7.05
2023-05-18T16:02:17.821Z,6.84
2023-05-18T16:04:48.822Z,6.93
2023-05-18T16:07:18.717Z,6.85
2023-05-18T16:09:48.570Z,6.44
2023-05-18T16:12:18.497Z,6.10
2023-05-18T16:14:47.995Z,6.33
2023-05-18T16:17:21.207Z,6.17
2023-05-18T16:19:50.486Z,6.46
2023-05-18T16:22:18.885Z,5.87
2023-05-18T16:24:47.589Z,5.96
2023-05-18T16:27:43.746Z,6.53
2023-05-18T16:30:21.085Z,6.53
2023-05-18T16:32:50.179Z,6.10
2023-05-18T16:35:18.900Z,6.31
2023-05-18T16:37:47.581Z,6.31
2023-05-18T16:40:16.883Z,6.40
2023-05-18T16:42:47.904Z,6.76
2023-05-18T16:45:17.979Z,6.76
2023-05-18T16:47:48.330Z,6.72
2023-05-18T16:50:17.653Z,6.53
2023-05-18T16:52:48.048Z,6.66
2023-05-18T16:55:17.715Z,6.73
2023-05-18T16:57:47.161Z,6.25
2023-05-18T17:00:20.481Z,6.38
2023-05-18T17:02:49.214Z,6.56
2023-05-18T17:05:22.416Z,6.04
2023-05-18T17:07:53.338Z,6.41
2023-05-18T17:10:23.823Z,6.08
2023-05-18T17:12:52.445Z,6.52
2023-05-18T17:15:21.040Z,6.06
2023-05-18T17:17:50.705Z,5.67
2023-05-18T17:20:19.447Z,6.06
2023-05-18T17:22:48.333Z,6.55
2023-05-18T17:25:18.094Z,6.53
2023-05-18T17:27:49.674Z,6.59
2023-05-18T17:30:18.531Z,6.18
2023-05-18T17:32:50.936Z,6.06
2023-05-18T17:35:19.935Z,5.96
2023-05-18T17:37:49.314Z,6.58
2023-05-18T17:40:19.369Z,6.22
2023-05-18T17:43:11.923Z,6.37
2023-05-18T17:45:57.196Z,6.18
2023-05-18T17:48:28.835Z,6.09
2023-05-18T17:50:56.967Z,6.62
2023-05-18T17:53:25.939Z,6.10
2023-05-18T17:55:54.793Z,6.12
2023-05-18T17:58:22.858Z,6.72
2023-05-18T18:00:51.283Z,6.74
2023-05-18T18:03:21.032Z,6.68
2023-05-18T18:05:50.447Z,6.13
2023-05-18T18:08:22.752Z,6.64
2023-05-18T18:10:53.301Z,6.62
2023-05-18T18:13:22.508Z,6.32
2023-05-18T18:15:50.819Z,6.43
2023-05-18T18:18:19.992Z,6.56
2023-05-18T18:20:49.709Z,6.65
2023-05-18T18:23:20.867Z,6.27
2023-05-18T18:25:50.563Z,6.46
2023-05-18T18:28:19.668Z,6.45
2023-05-18T18:30:48.659Z,6.50
2023-05-18T18:33:18.361Z,6.61
2023-05-18T18:35:47.324Z,6.16
2023-05-18T18:38:16.832Z,6.10
2023-05-18T18:40:48.128Z,6.16
2023-05-18T18:43:17.282Z,6.57
2023-05-18T18:45:47.129Z,6.68
2023-05-18T18:48:22.459Z,6.51
2023-05-18T18:50:53.733Z,6.41
2023-05-18T18:53:23.751Z,5.95
2023-05-18T18:55:53.195Z,6.61
2023-05-18T18:58:24.921Z,6.54
2023-05-18T19:00:55.955Z,6.65
2023-05-18T19:03:26.807Z,6.33
2023-05-18T19:05:55.236Z,6.21
2023-05-18T19:08:24.625Z,6.50
2023-05-18T19:10:52.772Z,6.59
2023-05-18T19:13:21.028Z,6.37
2023-05-18T19:15:51.557Z,6.67
2023-05-18T19:18:21.010Z,6.85
2023-05-18T19:20:49.755Z,6.26
2023-05-18T19:23:19.953Z,6.79
2023-05-18T19:25:48.568Z,6.91
2023-05-18T19:28:17.397Z,6.57
2023-05-18T19:30:48.146Z,6.92
2023-05-18T19:33:20.413Z,7.06
2023-05-18T19:35:50.315Z,6.43
2023-05-18T19:38:19.015Z,6.32
2023-05-18T19:40:47.512Z,6.72
2023-05-18T19:43:17.870Z,6.56
2023-05-18T19:45:48.458Z,6.84
2023-05-18T19:48:18.628Z,6.92
2023-05-18T19:50:47.471Z,6.66
2023-05-18T19:53:17.232Z,6.95
2023-05-18T19:55:48.946Z,7.05
2023-05-18T19:58:21.114Z,6.55
2023-05-18T20:00:50.505Z,7.06
2023-05-18T20:03:20.504Z,6.98
2023-05-18T20:05:50.357Z,7.05
2023-05-18T20:08:18.818Z,7.04
2023-05-18T20:10:48.165Z,6.63
2023-05-18T20:13:18.622Z,7.10
2023-05-18T20:15:48.085Z,6.60
2023-05-18T20:18:17.995Z,7.17
2023-05-18T20:20:46.695Z,6.61
2023-05-18T20:23:15.880Z,6.64
2023-05-18T20:25:49.656Z,6.87
2023-05-18T20:28:19.748Z,6.92
2023-05-18T20:30:48.434Z,6.79
2023-05-18T20:33:18.427Z,6.51
2023-05-18T20:35:46.869Z,6.97
2023-05-18T20:38:17.203Z,6.55
2023-05-18T20:40:47.766Z,6.58
2023-05-18T20:43:52.763Z,7.03
2023-05-18T20:46:25.298Z,6.33
2023-05-18T20:48:57.710Z,6.26
2023-05-18T20:51:28.610Z,6.66
2023-05-18T20:53:57.198Z,6.32
2023-05-18T20:56:27.791Z,6.95
2023-05-18T20:58:57.649Z,6.63
2023-05-18T21:01:29.321Z,6.53
2023-05-18T21:04:00.336Z,7.09
2023-05-18T21:06:29.231Z,6.53
2023-05-18T21:08:58.380Z,6.82
2023-05-18T21:11:27.587Z,6.99
2023-05-18T21:13:56.522Z,6.33
2023-05-18T21:16:24.995Z,6.53
2023-05-18T21:18:55.900Z,7.28
2023-05-18T21:21:24.864Z,6.68
2023-05-18T21:23:53.576Z,6.52
2023-05-18T21:26:22.911Z,6.60
2023-05-18T21:28:51.873Z,7.12
2023-05-18T21:31:21.582Z,6.74
2023-05-18T21:33:54.238Z,6.93
2023-05-18T21:36:36.300Z,6.71
2023-05-18T21:39:09.119Z,7.27
2023-05-18T21:41:40.842Z,7.16
2023-05-18T21:44:10.661Z,7.35
2023-05-18T21:46:39.828Z,7.24
2023-05-18T21:49:10.335Z,6.69
2023-05-18T21:51:39.773Z,7.28
2023-05-18T21:54:09.002Z,6.60
2023-05-18T21:56:39.732Z,7.06
2023-05-18T21:59:08.947Z,7.25
2023-05-18T22:01:40.011Z,6.73
2023-05-18T22:04:10.415Z,6.64
2023-05-18T22:06:39.534Z,6.58
2023-05-18T22:09:08.492Z,6.87
2023-05-18T22:11:41.253Z,7.25
2023-05-18T22:14:10.634Z,7.28
2023-05-18T22:16:43.389Z,6.82
2023-05-18T22:19:12.970Z,6.74
2023-05-18T22:21:42.870Z,6.73
2023-05-18T22:24:11.136Z,7.50
2023-05-18T22:26:39.783Z,7.15
2023-05-18T22:29:08.549Z,7.45
2023-05-18T22:31:37.567Z,7.64
2023-05-18T22:34:07.969Z,7.54
2023-05-18T22:36:37.915Z,7.29
2023-05-18T22:39:09.621Z,7.52
2023-05-18T22:41:38.846Z,6.83
2023-05-18T22:44:07.644Z,7.17
2023-05-18T22:48:02.289Z,6.86
2023-05-18T22:50:39.955Z,7.04
2023-05-18T22:53:12.286Z,7.15
2023-05-18T22:55:40.996Z,6.90
2023-05-18T22:58:10.363Z,7.18
2023-05-18T23:00:38.918Z,7.64
2023-05-18T23:03:21.371Z,7.28
2023-05-18T23:05:55.436Z,7.58
2023-05-18T23:08:26.760Z,7.57
2023-05-18T23:13:48.436Z,7.00
2023-05-18T23:16:18.916Z,6.98
2023-05-18T23:18:49.335Z,7.14
2023-05-18T23:21:18.465Z,7.20
2023-05-18T23:23:48.283Z,7.09
2023-05-18T23:26:18.610Z,7.21
2023-05-18T23:28:46.945Z,7.51
2023-05-18T23:31:17.815Z,7.47
2023-05-18T23:33:47.697Z,7.47
2023-05-18T23:36:21.170Z,7.64
2023-05-18T23:38:52.399Z,7.42
2023-05-18T23:41:22.522Z,7.86
2023-05-18T23:43:51.660Z,7.69
2023-05-18T23:46:24.337Z,7.45
2023-05-18T23:48:58.648Z,7.38
2023-05-18T23:51:32.464Z,7.85
2023-05-18T23:54:08.686Z,7.42
2023-05-18T23:56:39.032Z,7.45
2023-05-18T23:59:09.082Z,7.47
